Flight Track Log - Related Links

Times and Time Zones

All times are in EDT time to prevent confusion due to time zone crossing. See the CTL21 flight status page for this flight to view local times or setup timezone preferences in your user account.

Time Position Orientation Groundspeed Altitude Reporting Facility
EDT Latitude Longitude Course Direction KTS MPH feet Rate Location/Type
Tue 05:09:22 PM 42.1475 -85.4028 120° Southeast 153 176 3,700  Level Chicago Center
Tue 05:10:24 PM 42.1283 -85.3511 117° Southeast 153 176 4,300 726 Climbing Chicago Center
Tue 05:11:26 PM 42.1100 -85.2994 116° Southeast 153 176 5,200 774 Climbing Chicago Center
Tue 05:12:00 PM 42.0803 -85.1920 117° Southeast  Level FlightAware
Tue 05:12:28 PM 42.0894 -85.2494 119° Southeast 153 176 5,900  Level Chicago Center
Tue 05:13:00 PM 42.0572 -85.1306 117° Southeast  Level FlightAware
Tue 05:13:30 PM 42.0678 -85.1961 119° Southeast 159 183 6,400  Level Chicago Center
Tue 05:14:32 PM 42.0450 -85.1392 118° Southeast 169 194 7,000 339 Climbing Chicago Center
Tue 05:15:34 PM 42.0136 -85.0650 120° Southeast 185 213 7,100  Climbing Chicago Center
Tue 05:16:37 PM 41.9864 -84.9978 119° Southeast 200 230 7,000  Descending Chicago Center
Tue 05:17:39 PM 41.9606 -84.9311 118° Southeast 201 231 7,100 48 Climbing Chicago Center
Tue 05:18:41 PM 41.9342 -84.8656 118° Southeast 200 230 7,100 -48 Level Chicago Center
Tue 05:19:43 PM 41.9089 -84.8006 118° Southeast 197 227 7,000 -48 Descending Chicago Center
Tue 05:20:45 PM 41.8836 -84.7350 117° Southeast 196 226 7,000  Level Chicago Center
Tue 05:21:47 PM 41.8578 -84.6708 118° Southeast 196 226 7,000  Level Chicago Center
Tue 05:22:49 PM 41.8281 -84.5942 117° Southeast 194 223 7,000 48 Level Chicago Center
Tue 05:23:51 PM 41.8025 -84.5294 118° Southeast 195 224 7,100  Climbing Chicago Center
Tue 05:24:53 PM 41.7772 -84.4639 117° Southeast 197 227 7,000 -48 Descending Chicago Center
Tue 05:25:55 PM 41.7533 -84.4017 117° Southeast 192 221 7,000 48 Level Chicago Center
Tue 05:26:58 PM 41.7294 -84.3389 117° Southeast 191 220 7,100  Climbing Chicago Center
Tue 05:28:00 PM 41.7053 -84.2739 116° Southeast 192 221 7,000 48 Descending Chicago Center
Tue 05:29:02 PM 41.6764 -84.1975 117° Southeast 192 221 7,200 97 Climbing Chicago Center
Tue 05:30:04 PM 41.6514 -84.1350 118° Southeast 192 221 7,200  Level Chicago Center

Login

Don't have an account? Register now (free) for customized features, flight alerts, and more!